Time;durP1;ratioP1;P1;durP2;ratioP2;P2;SDS_P1;SDS_P2;PMS_P1;PMS_P2;Temp;Humidity;BMP_temperature;BMP_pressure;BME280_temperature;BME280_humidity;BME280_pressure;Samples;Min_cycle;Max_cycle;Signal;HPM_P1;HPM_P2
2024/02/01 06:53:57;;;;;;;5.15;1.60;;;;;;;;;;10462759;28;20390;-84
2024/02/01 06:59:21;;;;;;;4.20;1.90;;;;;;;;;;10469203;28;20029;-85
2024/02/01 07:04:31;;;;;;;9.95;2.33;;;;;;;;;;10489390;22;20508;-82
2024/02/01 07:09:37;;;;;;;8.90;2.42;;;;;;;;;;10459873;28;20099;-82
2024/02/01 07:14:39;;;;;;;10.35;3.90;;;;;;;;;;10461914;28;20116;-82
2024/02/01 07:19:52;;;;;;;5.10;1.55;;;;;;;;;;10460702;28;20025;-82
2024/02/01 08:02:02;;;;;;;4.63;2.20;;;;;;;;;;10432297;28;20030;-81
2024/02/01 08:12:24;;;;;;;;;;;;;;;;;;10435615;28;20276;-82
2024/02/01 08:34:47;;;;;;;7.38;2.45;;;;;;;;;;10386895;28;20022;-83
2024/02/01 08:39:54;;;;;;;8.13;2.95;;;;;;;;;;10369203;28;20026;-83
2024/02/01 08:45:01;;;;;;;7.75;2.83;;;;;;;;;;10372675;28;20034;-83
2024/02/01 08:50:06;;;;;;;7.38;3.00;;;;;;;;;;10372724;28;20491;-83
2024/02/01 08:55:30;;;;;;;6.85;2.38;;;;;;;;;;10362597;28;20088;-83
2024/02/01 09:01:20;;;;;;;5.88;2.53;;;;;;;;;;10355179;28;20029;-84
2024/02/01 09:06:31;;;;;;;5.10;2.20;;;;;;;;;;10424005;28;20041;-82
2024/02/01 09:17:17;;;;;;;7.15;3.30;;;;;;;;;;10428960;28;20021;-82
2024/02/01 09:22:54;;;;;;;10.52;2.63;;;;;;;;;;10426961;28;20075;-82
2024/02/01 09:28:00;;;;;;;8.60;2.78;;;;;;;;;;10425463;28;20025;-81
2024/02/01 09:39:11;;;;;;;10.57;3.27;;;;;;;;;;10432736;28;20644;-83
2024/02/01 09:44:12;;;;;;;7.57;2.58;;;;;;;;;;10423918;28;20026;-82
2024/02/01 09:49:41;;;;;;;9.10;3.17;;;;;;;;;;10428191;28;20503;-82
2024/02/01 09:55:02;;;;;;;7.43;2.90;;;;;;;;;;10427469;28;20417;-82
2024/02/01 10:00:04;;;;;;;7.60;2.88;;;;;;;;;;10424909;28;20585;-82
2024/02/01 10:05:40;;;;;;;14.52;4.07;;;;;;;;;;10425532;28;20116;-82
2024/02/01 10:10:56;;;;;;;10.10;3.00;;;;;;;;;;10431111;28;20056;-83
2024/02/01 10:16:01;;;;;;;7.63;2.75;;;;;;;;;;10416344;28;20087;-83
2024/02/01 10:21:21;;;;;;;7.35;1.98;;;;;;;;;;10432543;28;20047;-82
2024/02/01 10:26:41;;;;;;;9.75;3.53;;;;;;;;;;10429992;28;20487;-83
2024/02/01 10:31:49;;;;;;;7.57;2.22;;;;;;;;;;10427924;28;20033;-83
2024/02/01 10:37:38;;;;;;;6.70;1.98;;;;;;;;;;10419741;28;20025;-83
2024/02/01 10:43:06;;;;;;;8.15;2.78;;;;;;;;;;10415651;28;20061;-84
2024/02/01 10:48:27;;;;;;;5.78;2.38;;;;;;;;;;10431360;28;20110;-84
2024/02/01 10:53:29;;;;;;;8.18;2.95;;;;;;;;;;10427000;28;20546;-83
2024/02/01 10:58:30;;;;;;;9.20;3.20;;;;;;;;;;10426974;28;20074;-83
2024/02/01 11:03:32;;;;;;;8.63;2.20;;;;;;;;;;10431647;28;20017;-83
2024/02/01 11:08:34;;;;;;;7.40;2.20;;;;;;;;;;10430730;28;20483;-83
2024/02/01 11:13:36;;;;;;;9.45;2.95;;;;;;;;;;10429625;28;20061;-83
2024/02/01 11:18:37;;;;;;;8.07;2.35;;;;;;;;;;10427574;28;20037;-83
2024/02/01 11:23:42;;;;;;;9.15;3.40;;;;;;;;;;10422791;28;20124;-82
2024/02/01 11:28:52;;;;;;;9.43;3.22;;;;;;;;;;10435288;28;20034;-83
2024/02/01 11:33:54;;;;;;;10.30;2.60;;;;;;;;;;10433571;28;20168;-83
2024/02/01 11:38:56;;;;;;;8.80;2.50;;;;;;;;;;10435557;28;20040;-83
2024/02/01 11:43:57;;;;;;;;;;;;;;;;;;10434658;28;20112;-83
2024/02/01 11:48:58;;;;;;;5.88;2.20;;;;;;;;;;10434400;28;20070;-83
2024/02/01 11:54:02;;;;;;;;;;;;;;;;;;10435474;28;20045;-83
2024/02/01 11:59:04;;;;;;;6.82;2.42;;;;;;;;;;10435330;28;19908;-83
2024/02/01 12:04:08;;;;;;;13.27;3.65;;;;;;;;;;10434453;28;20076;-83
2024/02/01 12:09:10;;;;;;;8.05;3.30;;;;;;;;;;10414624;28;20025;-83
2024/02/01 12:14:17;;;;;;;6.50;2.38;;;;;;;;;;10433064;28;20071;-84
2024/02/01 12:19:20;;;;;;;10.73;3.45;;;;;;;;;;10437275;28;20036;-83
2024/02/01 12:24:25;;;;;;;8.65;3.13;;;;;;;;;;10435206;28;20021;-83
2024/02/01 12:29:27;;;;;;;5.68;2.00;;;;;;;;;;10438276;28;20029;-83
2024/02/01 12:34:28;;;;;;;6.32;2.17;;;;;;;;;;10436498;28;20104;-83
2024/02/01 12:39:32;;;;;;;;;;;;;;;;;;10434265;28;20041;-82
2024/02/01 12:44:33;;;;;;;8.40;2.42;;;;;;;;;;10435233;28;20297;-84
2024/02/01 12:49:34;;;;;;;9.70;2.58;;;;;;;;;;10436050;28;20030;-83
2024/02/01 12:54:42;;;;;;;;;;;;;;;;;;10438576;28;20021;-84
2024/02/01 12:59:43;;;;;;;9.45;2.83;;;;;;;;;;10432334;28;19905;-84
2024/02/01 13:04:44;;;;;;;;;;;;;;;;;;10431898;28;20112;-84
2024/02/01 13:09:46;;;;;;;10.80;2.95;;;;;;;;;;10434482;28;19943;-84
2024/02/01 13:14:57;;;;;;;7.57;2.50;;;;;;;;;;10433257;28;20033;-84
2024/02/01 13:19:59;;;;;;;9.38;2.97;;;;;;;;;;10432471;28;20036;-83
2024/02/01 13:25:00;;;;;;;10.30;2.72;;;;;;;;;;10435075;28;20040;-83
2024/02/01 13:30:20;;;;;;;8.52;2.50;;;;;;;;;;10433708;28;20033;-84
2024/02/01 13:35:21;;;;;;;10.13;4.82;;;;;;;;;;10436097;28;20045;-83
2024/02/01 13:40:25;;;;;;;5.53;2.28;;;;;;;;;;10436839;28;20044;-83
2024/02/01 13:45:28;;;;;;;5.68;1.95;;;;;;;;;;10448734;28;20056;-83
2024/02/01 13:50:33;;;;;;;7.50;2.40;;;;;;;;;;10448962;28;20119;-84
2024/02/01 13:55:34;;;;;;;10.82;2.95;;;;;;;;;;10438663;28;20053;-82
2024/02/01 14:00:35;;;;;;;;;;;;;;;;;;10429589;28;20034;-83
2024/02/01 14:05:36;;;;;;;9.30;2.45;;;;;;;;;;10426047;28;19905;-83
2024/02/01 14:10:37;;;;;;;;;;;;;;;;;;10431865;28;20036;-83
2024/02/01 14:15:52;;;;;;;8.25;2.72;;;;;;;;;;10440021;28;19972;-84
2024/02/01 14:21:20;;;;;;;5.55;2.10;;;;;;;;;;10460050;28;20037;-84
2024/02/01 14:26:22;;;;;;;8.20;2.20;;;;;;;;;;10459389;28;20033;-83
2024/02/01 14:31:25;;;;;;;10.23;3.50;;;;;;;;;;10450103;28;20032;-83
2024/02/01 14:36:26;;;;;;;6.55;2.28;;;;;;;;;;10436847;28;20027;-85
2024/02/01 14:41:30;;;;;;;;;;;;;;;;;;10436601;28;20021;-84
2024/02/01 14:46:32;;;;;;;6.68;2.08;;;;;;;;;;10433711;28;20363;-83
2024/02/01 14:51:33;;;;;;;9.25;2.90;;;;;;;;;;10432474;28;20036;-84
2024/02/01 14:56:34;;;;;;;;;;;;;;;;;;10433937;28;20032;-83
2024/02/01 15:01:49;;;;;;;8.45;2.83;;;;;;;;;;10432245;28;19911;-85
2024/02/01 15:06:50;;;;;;;5.47;2.15;;;;;;;;;;10438960;28;20122;-82
2024/02/01 15:11:51;;;;;;;8.85;2.65;;;;;;;;;;10435814;28;20029;-82
2024/02/01 15:16:53;;;;;;;6.45;2.05;;;;;;;;;;10438848;28;20530;-82
2024/02/01 15:21:59;;;;;;;7.22;2.13;;;;;;;;;;10436771;28;20021;-82
2024/02/01 15:27:02;;;;;;;8.10;2.30;;;;;;;;;;10431660;28;20026;-81
2024/02/01 15:32:04;;;;;;;5.15;1.90;;;;;;;;;;10434571;28;20051;-81
2024/02/01 15:37:06;;;;;;;7.57;2.25;;;;;;;;;;10434940;28;20021;-83
2024/02/01 15:42:08;;;;;;;6.10;1.90;;;;;;;;;;10435247;28;20122;-82
2024/02/01 15:47:09;;;;;;;9.10;2.97;;;;;;;;;;10432499;28;20024;-83
2024/02/01 15:52:10;;;;;;;5.57;2.00;;;;;;;;;;10432624;28;20025;-82
2024/02/01 15:57:12;;;;;;;7.45;1.92;;;;;;;;;;10433225;28;20044;-81
2024/02/01 16:02:13;;;;;;;7.18;1.80;;;;;;;;;;10432741;28;20140;-82
2024/02/01 16:07:14;;;;;;;6.97;2.35;;;;;;;;;;10433869;28;20033;-81
2024/02/01 16:12:18;;;;;;;5.93;2.08;;;;;;;;;;10431269;28;20030;-81
2024/02/01 16:17:20;;;;;;;6.63;2.60;;;;;;;;;;10429015;28;20025;-82
2024/02/01 16:22:36;;;;;;;9.45;4.35;;;;;;;;;;10427705;28;20112;-82
2024/02/01 16:27:37;;;;;;;6.88;2.20;;;;;;;;;;10426992;28;20026;-82
2024/02/01 16:32:38;;;;;;;6.32;2.60;;;;;;;;;;10432064;28;20081;-81
2024/02/01 16:37:45;;;;;;;6.05;2.35;;;;;;;;;;10430978;28;20041;-81
2024/02/01 16:42:46;;;;;;;4.03;1.63;;;;;;;;;;10436237;28;20117;-81
2024/02/01 16:47:49;;;;;;;4.60;1.90;;;;;;;;;;10449871;28;20017;-81
2024/02/01 16:52:55;;;;;;;7.43;2.60;;;;;;;;;;10437841;28;20022;-82
2024/02/01 16:57:59;;;;;;;4.90;1.83;;;;;;;;;;10434820;28;20475;-83
2024/02/01 17:03:05;;;;;;;7.65;2.22;;;;;;;;;;10435196;28;20108;-82
2024/02/01 17:08:06;;;;;;;5.13;2.30;;;;;;;;;;10433814;28;20052;-82
2024/02/01 17:13:08;;;;;;;7.65;2.53;;;;;;;;;;10432367;28;20087;-82
2024/02/01 17:18:14;;;;;;;6.68;2.35;;;;;;;;;;10429842;28;20025;-82
2024/02/01 17:23:16;;;;;;;5.63;2.40;;;;;;;;;;10426823;28;20026;-82
2024/02/01 17:28:32;;;;;;;7.95;2.55;;;;;;;;;;10428557;28;20026;-83
2024/02/01 17:33:33;;;;;;;5.15;2.10;;;;;;;;;;10426702;28;20124;-83
2024/02/01 17:38:51;;;;;;;7.47;2.67;;;;;;;;;;10427112;28;20048;-83
2024/02/01 17:44:01;;;;;;;6.65;2.50;;;;;;;;;;10426830;28;20037;-82
2024/02/01 17:49:03;;;;;;;5.40;2.33;;;;;;;;;;10427734;28;20068;-82
2024/02/01 17:54:10;;;;;;;4.93;2.35;;;;;;;;;;10427610;28;20037;-82
2024/02/01 17:59:11;;;;;;;6.43;2.45;;;;;;;;;;10429082;28;20018;-83
2024/02/01 18:04:31;;;;;;;6.72;2.90;;;;;;;;;;10424083;28;20029;-83
2024/02/01 18:09:34;;;;;;;6.95;2.60;;;;;;;;;;10425139;28;20072;-83
2024/02/01 18:14:35;;;;;;;5.85;2.55;;;;;;;;;;10428248;28;20486;-85
2024/02/01 18:19:36;;;;;;;5.57;2.47;;;;;;;;;;10421944;28;20080;-84
2024/02/01 18:24:42;;;;;;;16.33;7.75;;;;;;;;;;10428191;28;20059;-84
2024/02/01 18:29:50;;;;;;;14.07;7.00;;;;;;;;;;10428021;28;20459;-84
2024/02/01 18:34:52;;;;;;;7.20;2.72;;;;;;;;;;10426102;28;20052;-84
2024/02/01 18:39:53;;;;;;;5.07;2.50;;;;;;;;;;10427605;28;20487;-84
2024/02/01 18:44:54;;;;;;;6.78;2.65;;;;;;;;;;10431223;28;20029;-84
2024/02/01 18:49:57;;;;;;;6.97;2.83;;;;;;;;;;10430106;28;20053;-84
2024/02/01 18:54:59;;;;;;;8.20;2.45;;;;;;;;;;10426623;28;20041;-84
2024/02/01 19:00:03;;;;;;;6.80;2.45;;;;;;;;;;10442925;28;20065;-84
2024/02/01 19:05:05;;;;;;;7.30;2.92;;;;;;;;;;10442168;23;20069;-85
2024/02/01 19:10:11;;;;;;;5.43;2.20;;;;;;;;;;10389306;28;20041;-84
2024/02/01 19:15:31;;;;;;;6.53;2.78;;;;;;;;;;10388048;28;20026;-84
2024/02/01 19:20:32;;;;;;;7.13;2.85;;;;;;;;;;10393496;28;20030;-85
2024/02/01 19:25:34;;;;;;;6.53;2.67;;;;;;;;;;10393239;28;20029;-86
2024/02/01 19:30:41;;;;;;;5.75;2.72;;;;;;;;;;10419028;28;20030;-85
2024/02/01 19:35:43;;;;;;;6.75;2.33;;;;;;;;;;10396085;28;20026;-85
2024/02/01 19:40:47;;;;;;;7.45;2.38;;;;;;;;;;10388402;28;20029;-85
2024/02/01 19:45:48;;;;;;;6.32;2.60;;;;;;;;;;10382967;28;20032;-85
2024/02/01 19:50:51;;;;;;;5.82;2.75;;;;;;;;;;10386297;28;20030;-84
2024/02/01 19:55:52;;;;;;;5.15;2.20;;;;;;;;;;10393684;28;20059;-85
2024/02/01 20:00:53;;;;;;;5.32;2.40;;;;;;;;;;10397319;28;20109;-85
2024/02/01 20:05:54;;;;;;;5.07;2.40;;;;;;;;;;10393254;28;20084;-86
